CheckWX is a tool to help pilots better visualize weather data.  It is not intended as a substitute for an official pre-flight weather briefing.

15:36:42 UTC

KBYG METAR
Johnson County Airport
Buffalo, Wyoming, USA
Current

44 mins ago

KBYG 201453Z AUTO 15013KT 10SM OVC008 02/01 A2986 RMK AO2 SNE1358 SLP122 P0000 60000 T00170006 57011
Observed
May-20 @ 14:53 UTC
Wind
  • 150° at 13 KTS
Visibility
10 SM
Flight Rules
IFR
Cloud Levels
  • Overcast at 800' AGL
Temperature
C / 36°F
Dewpoint
C / 34°F
Humidity
93%
Altimeter
29.86" Hg
Pressure
1011.22 hPa
Current Rain
0.01"
Previous

1 hour ago

KBYG 201416Z AUTO 15016KT 10SM BKN008 OVC012 02/01 A2987 RMK AO2 SNE1358 CIG 004V011 P0000 T00170006
Observed
May-20 @ 14:16 UTC
Wind
  • 150° at 16 KTS
Visibility
10 SM
Flight Rules
IFR
Cloud Levels
  • Broken at 800' AGL
  • Overcast at 1,200' AGL
Temperature
C / 36°F
Dewpoint
C / 34°F
Humidity
93%
Altimeter
29.87" Hg
Pressure
1011.52 hPa
Current Rain
0.01"
Previous

2 hours ago

KBYG 201353Z AUTO 15010KT 3SM -SN BR OVC005 01/01 A2987 RMK AO2 SNE1254B43 SLP127 P0000 T00110006
Observed
May-20 @ 13:53 UTC
Wind
  • 150° at 10 KTS
Visibility
3 SM
Flight Rules
IFR
Conditions
Light Snow, Mist
Cloud Levels
  • Overcast at 500' AGL
Temperature
C / 34°F
Dewpoint
C / 34°F
Humidity
100%
Altimeter
29.87" Hg
Pressure
1011.52 hPa
Current Rain
0.01"